Vane Brothers — WDC2297 — position and weather

sailwx.info

Track history (hours):
 
Tides and Currents Weather Stations Pressure Air Temp Water Temp Dewpoint Dewpoint Depression Visibility Wind Speed Wind Dir Waves Ship Positions

Vane Brothers

Owner: Vane Line Bunkering, Inc., Philadelphia, PA. More information available from US FCC via Universal Licensing System and Coast Guard Vessel Documentation Center.

Last reported at 2018-Feb-25 03:00 UTC. Time now 2018-Feb-25 03:21 UTC.
Position N 40°41' W 074°05'.

Length 24 m.

Type: Tug. MMSI: 366990810.

Date/timePositionNaut miles runAvg speedWind from/ knotsBaromVisibWave heightAir tempDewpointWater temp
2018-Feb-25 03:00N 40°41' W 074°05'0 0.0
2018-Feb-25 02:31N 40°41' W 074°05'0 0.0
2018-Feb-25 02:00N 40°41' W 074°05'0 0.4
2018-Feb-25 01:31N 40°41' W 074°04'1 2.8
2018-Feb-25 01:01N 40°39' W 074°05'3 6.6
2018-Feb-25 00:30N 40°39' W 074°09'3 5.9
2018-Feb-25 00:00N 40°42' W 074°08'0 0.3
2018-Feb-24 23:30N 40°42' W 074°09'0 0.1
2018-Feb-24 22:59N 40°42' W 074°09'2 3.6
2018-Feb-24 22:30N 40°40' W 074°08'2 3.0
2018-Feb-24 22:00N 40°39' W 074°07'1 2.4
2018-Feb-24 21:30N 40°39' W 074°06'0 0.0
2018-Feb-24 21:00N 40°39' W 074°06'2 4.4
2018-Feb-24 20:31N 40°41' W 074°04'1 1.8
2018-Feb-24 20:00N 40°40' W 074°04'2 3.3
2018-Feb-24 19:29N 40°39' W 074°06'0 0.0
2018-Feb-24 19:00N 40°39' W 074°06'0 0.0
2018-Feb-24 18:29N 40°39' W 074°06'1 2.6
2018-Feb-24 18:00N 40°39' W 074°07'4 7.4
2018-Feb-24 17:30N 40°38' W 074°12'4 8.3
2018-Feb-24 16:58N 40°33' W 074°14'1 2.2
2018-Feb-24 16:23N 40°32' W 074°15'1 3.5
2018-Feb-24 16:00N 40°33' W 074°14'3 6.1
2018-Feb-24 15:30N 40°36' W 074°12'3 5.9
2018-Feb-24 15:00N 40°39' W 074°11'4 7.6
2018-Feb-24 14:29N 40°39' W 074°05'3 6.8
2018-Feb-24 14:00N 40°41' W 074°02'510.1
2018-Feb-24 13:30N 40°46' W 074°00'510.0
2018-Feb-24 13:00N 40°50' W 073°57'5 8.9
2018-Feb-24 12:28N 40°55' W 073°55'4 0.7
2018-Feb-24 07:06N 40°58' W 073°54'110.5
2018-Feb-24 06:59N 40°57' W 073°54'510.3
2018-Feb-24 06:30N 40°52' W 073°56'510.4
2018-Feb-24 06:00N 40°48' W 073°59'5 9.5
2018-Feb-24 05:30N 40°43' W 074°01'4 7.4
2018-Feb-24 05:01N 40°40' W 074°04'0 0.5
2018-Feb-24 04:30N 40°41' W 074°05'0 0.0
2018-Feb-24 04:00N 40°41' W 074°05'0 0.0
2018-Feb-24 03:30N 40°41' W 074°05'0 0.0
2018-Feb-24 03:00N 40°41' W 074°05'0 0.0
2018-Feb-24 02:30N 40°41' W 074°05'0 0.0
2018-Feb-24 02:00N 40°41' W 074°05'0 0.0
2018-Feb-24 01:30N 40°41' W 074°05'0 0.0
2018-Feb-24 01:00N 40°41' W 074°05'0 0.0
2018-Feb-24 00:30N 40°41' W 074°05'0 0.0
2018-Feb-24 00:00N 40°41' W 074°05'0 0.0
2018-Feb-23 23:30N 40°41' W 074°05'0 0.0
2018-Feb-23 23:00N 40°41' W 074°05'0 0.1
2018-Feb-23 22:30N 40°41' W 074°04'0 0.1
2018-Feb-23 22:00N 40°41' W 074°04'0 0.2
2018-Feb-23 21:30N 40°41' W 074°05'0 0.0
2018-Feb-23 21:00N 40°41' W 074°05'0 0.0
2018-Feb-23 20:30N 40°41' W 074°05'3 5.9
2018-Feb-23 20:00N 40°41' W 074°01'3 6.5
2018-Feb-23 19:30N 40°44' W 073°58'3 5.7
2018-Feb-23 19:00N 40°46' W 073°57'3 5.6
2018-Feb-23 18:30N 40°48' W 073°54'0 0.1
2018-Feb-23 18:00N 40°48' W 073°54'0 0.2
2018-Feb-23 17:30N 40°48' W 073°54'0 0.0
2018-Feb-23 17:00N 40°48' W 073°54'0 0.0
2018-Feb-23 16:12N 40°48' W 073°54'0 0.0
2018-Feb-23 15:58N 40°48' W 073°54'0 0.0
2018-Feb-23 15:03N 40°48' W 073°54'0 0.0
2018-Feb-23 14:57N 40°48' W 073°54'0 0.0
2018-Feb-23 14:30N 40°48' W 073°54'0 0.0
2018-Feb-23 14:00N 40°48' W 073°54'0 0.2
2018-Feb-23 13:30N 40°48' W 073°54'0 0.0
2018-Feb-23 13:00N 40°48' W 073°54'0 0.0
2018-Feb-23 12:26N 40°48' W 073°54'0 0.0
2018-Feb-23 11:54N 40°48' W 073°54'0 0.2
2018-Feb-23 11:30N 40°48' W 073°54'0 0.0
2018-Feb-23 11:00N 40°48' W 073°54'0 0.0
2018-Feb-23 10:30N 40°48' W 073°54'0 0.0
2018-Feb-23 10:00N 40°48' W 073°54'2 4.2
2018-Feb-23 09:30N 40°47' W 073°56'3 5.9
2018-Feb-23 09:00N 40°44' W 073°58'3 6.9
2018-Feb-23 08:30N 40°42' W 074°00'3 6.5
2018-Feb-23 08:00N 40°41' W 074°05'0 0.0
2018-Feb-23 07:30N 40°41' W 074°05'0 0.0
2018-Feb-23 07:00N 40°41' W 074°05'0 0.0
2018-Feb-23 06:30N 40°41' W 074°05'0 0.0
2018-Feb-23 06:00N 40°41' W 074°05'0 0.0
2018-Feb-23 05:30N 40°41' W 074°05'1 2.6
2018-Feb-23 05:01N 40°40' W 074°03'3 6.7
2018-Feb-23 04:30N 40°43' W 074°01'3 6.5
2018-Feb-23 04:00N 40°41' W 074°05'0 0.0
2018-Feb-23 03:30N 40°41' W 074°05'0 0.0
2018-Feb-23 03:00N 40°41' W 074°05'0 0.0
2018-Feb-23 02:30N 40°41' W 074°05'0 0.0
2018-Feb-23 02:00N 40°41' W 074°05'0 0.0
2018-Feb-23 01:30N 40°41' W 074°05'0 0.0
2018-Feb-23 01:00N 40°41' W 074°05'0 0.0
2018-Feb-23 00:30N 40°41' W 074°05'0 0.0
2018-Feb-23 00:00N 40°41' W 074°05'0 0.0
2018-Feb-22 23:30N 40°41' W 074°05'0 0.0
2018-Feb-22 23:00N 40°41' W 074°05'0 0.0
2018-Feb-22 22:30N 40°41' W 074°05'0 0.0
2018-Feb-22 22:00N 40°41' W 074°05'0 0.0
2018-Feb-22 21:30N 40°41' W 074°05'0 0.0
2018-Feb-22 21:00N 40°41' W 074°05'0 0.0
2018-Feb-22 20:30N 40°41' W 074°05'0 0.0
2018-Feb-22 20:00N 40°41' W 074°05'0 0.0
2018-Feb-22 19:30N 40°41' W 074°05'0 0.0
2018-Feb-22 19:00N 40°41' W 074°05'0 0.0
2018-Feb-22 18:30N 40°41' W 074°05'0 0.0
2018-Feb-22 18:00N 40°41' W 074°05'0 0.0
2018-Feb-22 17:28N 40°41' W 074°05'0 0.0
2018-Feb-22 17:00N 40°41' W 074°05'0 0.0
2018-Feb-22 16:30N 40°41' W 074°05'0 0.0
2018-Feb-22 16:00N 40°41' W 074°05'0 0.0
2018-Feb-22 15:30N 40°41' W 074°05'2 3.2
2018-Feb-22 15:00N 40°39' W 074°05'4 7.8
2018-Feb-22 14:30N 40°39' W 074°10'4 7.3
2018-Feb-22 14:00N 40°35' W 074°12'4 3.2
2018-Feb-22 12:49N 40°32' W 074°15'1 2.0
2018-Feb-22 12:30N 40°33' W 074°15'2 3.6
2018-Feb-22 12:00N 40°34' W 074°13'2 4.4
2018-Feb-22 11:30N 40°36' W 074°12'2 4.2
2018-Feb-22 11:00N 40°38' W 074°12'2 3.9
2018-Feb-22 10:30N 40°39' W 074°10'1 2.0
2018-Feb-22 10:00N 40°39' W 074°08'2 3.1
2018-Feb-22 09:30N 40°39' W 074°06'1 2.4
2018-Feb-22 09:00N 40°39' W 074°05'1 3.0
2018-Feb-22 08:30N 40°40' W 074°04'0 0.6
2018-Feb-22 08:00N 40°41' W 074°04'0 0.2
2018-Feb-22 07:30N 40°41' W 074°04'0 0.0
2018-Feb-22 07:00N 40°41' W 074°04'0 0.0
2018-Feb-22 06:30N 40°41' W 074°04'0 0.0
2018-Feb-22 06:00N 40°41' W 074°04'0 0.0
2018-Feb-22 05:30N 40°41' W 074°04'0 0.0
2018-Feb-22 05:00N 40°41' W 074°04'0 0.1
2018-Feb-22 04:30N 40°41' W 074°04'0 0.2
2018-Feb-22 04:00N 40°40' W 074°04'0 0.3
2018-Feb-22 03:30N 40°41' W 074°05'0 0.3
2018-Feb-22 03:00N 40°40' W 074°04'1 1.1
2018-Feb-22 02:31N 40°40' W 074°04'1 2.0
2018-Feb-22 02:00N 40°41' W 074°02'2 4.1
2018-Feb-22 01:30N 40°42' W 074°00'3 5.1
2018-Feb-22 01:00N 40°44' W 073°58'3 6.8
2018-Feb-22 00:30N 40°47' W 073°56'2 3.6
2018-Feb-22 00:00N 40°47' W 073°54'0 0.2
2018-Feb-21 23:30N 40°47' W 073°54'0 0.0
2018-Feb-21 23:00N 40°47' W 073°54'0 0.0
2018-Feb-21 22:30N 40°47' W 073°54'0 0.0
2018-Feb-21 22:00N 40°47' W 073°54'0 0.0
2018-Feb-21 21:30N 40°47' W 073°54'0 0.0
2018-Feb-21 21:00N 40°47' W 073°54'0 0.0
2018-Feb-21 20:29N 40°47' W 073°54'0 0.0
2018-Feb-21 19:59N 40°47' W 073°54'0 0.0
2018-Feb-21 19:30N 40°47' W 073°54'1 1.6
2018-Feb-21 18:59N 40°48' W 073°55'3 6.1
2018-Feb-21 18:30N 40°45' W 073°57'4 7.8
2018-Feb-21 18:01N 40°42' W 073°60'3 6.8
2018-Feb-21 17:30N 40°40' W 074°04'1 1.2
2018-Feb-21 17:00N 40°41' W 074°05'0 0.0
2018-Feb-21 16:30N 40°41' W 074°05'0 0.1
2018-Feb-21 16:00N 40°41' W 074°05'0 0.2
2018-Feb-21 15:31N 40°40' W 074°04'0 0.2
2018-Feb-21 15:00N 40°41' W 074°05'1 2.0
2018-Feb-21 14:30N 40°40' W 074°04'4 8.1
2018-Feb-21 13:59N 40°39' W 074°10'3 7.1
2018-Feb-21 13:30N 40°36' W 074°12'4 2.4
2018-Feb-21 11:43N 40°32' W 074°15'0 0.0
2018-Feb-20 21:53N 40°32' W 074°15'0 0.0
2018-Feb-20 21:25N 40°32' W 074°15'0 0.0
2018-Feb-20 21:00N 40°32' W 074°15'0 0.0
2018-Feb-20 20:25N 40°32' W 074°15'0 0.0
2018-Feb-20 19:48N 40°32' W 074°15'0 0.0
2018-Feb-20 19:29N 40°32' W 074°15'0 0.0
2018-Feb-20 18:59N 40°32' W 074°15'0 0.0
2018-Feb-20 16:55N 40°32' W 074°15'0 0.0
2018-Feb-20 15:11N 40°32' W 074°15'0 0.0
2018-Feb-20 15:00N 40°32' W 074°15'0 0.0
2018-Feb-19 20:50N 40°32' W 074°15'0 0.0
2018-Feb-19 20:24N 40°32' W 074°15'0 0.0
2018-Feb-19 20:00N 40°32' W 074°15'0 0.0
2018-Feb-19 19:30N 40°32' W 074°15'0 0.0
2018-Feb-19 18:59N 40°32' W 074°15'0 0.0
2018-Feb-19 18:30N 40°32' W 074°15'0 0.0
2018-Feb-19 17:57N 40°32' W 074°15'0 0.0
2018-Feb-19 17:28N 40°32' W 074°15'0 0.0
2018-Feb-19 16:49N 40°32' W 074°15'0 0.0
2018-Feb-19 16:30N 40°32' W 074°15'0 0.0
2018-Feb-19 15:58N 40°32' W 074°15'0 0.0
2018-Feb-19 15:28N 40°32' W 074°15'0 0.0
2018-Feb-19 14:39N 40°32' W 074°15'0 0.0
2018-Feb-19 10:10N 40°32' W 074°15'0 0.0
2018-Feb-19 10:00N 40°32' W 074°15'0 0.0
2018-Feb-19 09:29N 40°32' W 074°15'0 0.0
2018-Feb-19 09:00N 40°32' W 074°15'0 0.0
2018-Feb-19 08:30N 40°32' W 074°15'0 0.0
2018-Feb-19 08:00N 40°32' W 074°15'0 0.0
2018-Feb-19 07:30N 40°32' W 074°15'0 0.0
2018-Feb-19 06:58N 40°32' W 074°15'0 0.0
2018-Feb-19 06:30N 40°32' W 074°15'0 0.0
2018-Feb-19 06:00N 40°32' W 074°15'0 0.0
2018-Feb-19 05:30N 40°32' W 074°15'0 0.0
2018-Feb-19 05:00N 40°32' W 074°15'0 0.0
2018-Feb-19 04:29N 40°32' W 074°15'0 0.0
2018-Feb-19 04:00N 40°32' W 074°15'0 0.0
2018-Feb-19 03:30N 40°32' W 074°15'0 0.0
2018-Feb-19 02:56N 40°32' W 074°15'0 0.0
2018-Feb-19 01:50N 40°32' W 074°15'0 0.0
2018-Feb-19 01:23N 40°32' W 074°15'0 0.2
2018-Feb-18 23:20N 40°33' W 074°15'3 7.8
2018-Feb-18 22:59N 40°35' W 074°13'4 9.0
2018-Feb-18 22:30N 40°39' W 074°11'5 9.8
2018-Feb-18 22:00N 40°39' W 074°05'1 2.8
2018-Feb-18 21:30N 40°41' W 074°04'0 0.0
2018-Feb-18 21:00N 40°41' W 074°04'0 0.0
2018-Feb-18 20:30N 40°41' W 074°04'0 0.0
2018-Feb-18 20:00N 40°41' W 074°04'0 0.0
2018-Feb-18 19:30N 40°41' W 074°04'0 0.2
2018-Feb-18 19:00N 40°41' W 074°05'2 4.4
2018-Feb-18 18:29N 40°39' W 074°07'0 0.2
2018-Feb-18 17:59N 40°39' W 074°07'0 0.0
2018-Feb-18 17:30N 40°39' W 074°07'0 0.0
2018-Feb-18 17:00N 40°39' W 074°07'0 0.0
2018-Feb-18 16:30N 40°39' W 074°07'0 0.0
2018-Feb-18 16:00N 40°39' W 074°07'0 0.0
2018-Feb-18 15:30N 40°39' W 074°07'0 0.0
2018-Feb-18 15:00N 40°39' W 074°07'4 7.5
2018-Feb-18 14:30N 40°38' W 074°12'5 9.2
2018-Feb-18 14:00N 40°34' W 074°13'2 4.7
2018-Feb-18 13:30N 40°32' W 074°15'0 0.0
2018-Feb-18 12:59N 40°32' W 074°15'0 0.0
2018-Feb-18 12:30N 40°32' W 074°15'0 0.0
2018-Feb-18 11:37N 40°32' W 074°15'0 0.0
2018-Feb-18 11:18N 40°32' W 074°15'0 0.0
2018-Feb-18 11:00N 40°32' W 074°15'0 0.0
2018-Feb-18 10:30N 40°32' W 074°15'0 0.0
2018-Feb-18 10:00N 40°32' W 074°15'0 0.0
2018-Feb-18 09:30N 40°32' W 074°15'0 0.0
2018-Feb-18 09:00N 40°32' W 074°15'0 0.0
2018-Feb-18 08:29N 40°32' W 074°15'0 0.0
2018-Feb-18 08:00N 40°32' W 074°15'0 0.0
2018-Feb-18 07:29N 40°32' W 074°15'0 0.0
2018-Feb-18 07:00N 40°32' W 074°15'0 0.0
2018-Feb-18 06:30N 40°32' W 074°15'0 0.0
2018-Feb-18 05:59N 40°32' W 074°15'0 0.0
2018-Feb-18 05:30N 40°32' W 074°15'0 0.0
2018-Feb-18 04:59N 40°32' W 074°15'0 0.0
2018-Feb-18 04:30N 40°32' W 074°15'0 0.0
2018-Feb-18 04:00N 40°32' W 074°15'0 0.0
2018-Feb-18 03:30N 40°32' W 074°15'0 0.0
2018-Feb-18 02:59N 40°32' W 074°15'0 0.0
2018-Feb-17 23:52N 40°32' W 074°15'0 0.1
2018-Feb-17 23:09N 40°32' W 074°15'0 0.0
2018-Feb-17 22:59N 40°32' W 074°15'0 0.0
2018-Feb-17 21:56N 40°32' W 074°15'0 0.2
2018-Feb-17 21:23N 40°32' W 074°15'0 0.0
2018-Feb-17 20:55N 40°32' W 074°15'0 0.0
2018-Feb-17 20:27N 40°32' W 074°15'0 0.0
2018-Feb-17 19:56N 40°32' W 074°15'0 0.1
2018-Feb-17 19:24N 40°32' W 074°15'0 0.1
2018-Feb-17 19:00N 40°32' W 074°15'0 0.0
2018-Feb-17 17:01N 40°32' W 074°15'0 0.4
2018-Feb-17 17:00N 40°32' W 074°15'0 0.0
2018-Feb-17 15:06N 40°32' W 074°15'0 0.2
2018-Feb-17 14:57N 40°32' W 074°15'0 0.0
2018-Feb-17 13:27N 40°32' W 074°15'0 0.0
2018-Feb-17 08:17N 40°32' W 074°15'0 0.0
2018-Feb-17 07:58N 40°32' W 074°15'0 0.0
2018-Feb-17 07:29N 40°32' W 074°15'0 0.0
2018-Feb-17 05:37N 40°32' W 074°15'0 0.0
2018-Feb-17 03:42N 40°32' W 074°15'0 0.0
2018-Feb-17 03:30N 40°32' W 074°15'0 0.0
2018-Feb-17 03:00N 40°32' W 074°15'0 0.0
2018-Feb-17 02:30N 40°32' W 074°15'0 0.0
2018-Feb-17 01:58N 40°32' W 074°15'0 0.0
2018-Feb-17 01:13N 40°32' W 074°15'0 0.0
2018-Feb-17 00:54N 40°32' W 074°15'0 0.0
2018-Feb-16 18:19N 40°32' W 074°15'0 0.1
2018-Feb-16 17:59N 40°32' W 074°15'0 0.0
2018-Feb-16 17:27N 40°32' W 074°15'0 0.1
2018-Feb-16 16:51N 40°32' W 074°15'0 0.0
2018-Feb-16 15:55N 40°32' W 074°15'0 0.0
2018-Feb-16 15:28N 40°32' W 074°15'0 0.0
2018-Feb-16 14:32N 40°32' W 074°15'0 0.0
2018-Feb-16 14:29N 40°32' W 074°15'0 0.0
2018-Feb-16 12:10N 40°32' W 074°15'0 0.0
2018-Feb-16 11:04N 40°32' W 074°15'0 0.0
2018-Feb-16 10:26N 40°32' W 074°15'0 0.0
2018-Feb-16 03:56N 40°32' W 074°15'4 8.2
2018-Feb-16 03:28N 40°36' W 074°12'4 7.8
2018-Feb-16 03:00N 40°39' W 074°10'4 8.0
2018-Feb-16 02:30N 40°39' W 074°05'1 2.9
2018-Feb-16 02:00N 40°41' W 074°05'0 0.0
2018-Feb-16 01:30N 40°41' W 074°05'0 0.2
2018-Feb-16 01:00N 40°41' W 074°04'0 0.5
2018-Feb-16 00:30N 40°40' W 074°04'3 6.8
2018-Feb-16 00:00N 40°42' W 074°00'3 5.9
2018-Feb-15 23:30N 40°44' W 073°58'1 2.9
2018-Feb-15 23:00N 40°46' W 073°57'0 0.0
2018-Feb-15 22:30N 40°46' W 073°57'0 0.0
2018-Feb-15 22:00N 40°46' W 073°57'0 0.0
2018-Feb-15 21:30N 40°46' W 073°57'0 0.0
2018-Feb-15 21:00N 40°46' W 073°57'0 0.0
2018-Feb-15 20:30N 40°46' W 073°57'0 0.0
2018-Feb-15 19:58N 40°46' W 073°57'0 0.0
2018-Feb-15 19:30N 40°46' W 073°57'0 0.0
2018-Feb-15 19:00N 40°46' W 073°57'0 0.0
2018-Feb-15 18:29N 40°46' W 073°57'0 0.0
2018-Feb-15 18:00N 40°46' W 073°57'0 0.0
2018-Feb-15 17:30N 40°46' W 073°57'0 0.0
2018-Feb-15 17:00N 40°46' W 073°57'0 0.0
2018-Feb-15 16:30N 40°46' W 073°57'0 0.0
2018-Feb-15 16:00N 40°46' W 073°57'0 0.0
2018-Feb-15 15:30N 40°46' W 073°57'0 0.0
2018-Feb-15 15:00N 40°46' W 073°57'0 0.0
2018-Feb-15 14:30N 40°46' W 073°57'0 0.0
2018-Feb-15 14:00N 40°46' W 073°57'0 0.0
2018-Feb-15 13:30N 40°46' W 073°57'0 0.1
2018-Feb-15 13:00N 40°46' W 073°57'0 0.0
2018-Feb-15 12:30N 40°46' W 073°57'2 3.9
2018-Feb-15 12:00N 40°44' W 073°58'4 8.8
2018-Feb-15 11:30N 40°41' W 074°02'2 3.5
2018-Feb-15 11:00N 40°41' W 074°04'0 0.4
2018-Feb-15 10:30N 40°41' W 074°05'0 0.0
2018-Feb-15 10:00N 40°41' W 074°05'0 0.0
2018-Feb-15 09:30N 40°41' W 074°05'0 0.0
2018-Feb-15 09:00N 40°41' W 074°05'0 0.0
2018-Feb-15 08:30N 40°41' W 074°05'0 0.0
2018-Feb-15 08:00N 40°41' W 074°05'0 0.0
2018-Feb-15 07:30N 40°41' W 074°05'0 0.0
2018-Feb-15 07:00N 40°41' W 074°05'0 0.0
2018-Feb-15 06:30N 40°41' W 074°05'2 3.5
2018-Feb-15 06:00N 40°39' W 074°06'2 4.9
2018-Feb-15 05:30N 40°38' W 074°09'2 4.4
2018-Feb-15 05:00N 40°38' W 074°12'4 7.2
2018-Feb-15 04:30N 40°35' W 074°13'  
Track history (hours):
 
Tides and Currents Weather Stations Pressure Air Temp Water Temp Dewpoint Dewpoint Depression Visibility Wind Speed Wind Dir Waves Ship Positions

Vane Brothers

Owner: Vane Line Bunkering, Inc., Philadelphia, PA. More information available from US FCC via Universal Licensing System and Coast Guard Vessel Documentation Center.

Last reported at 2018-Feb-25 03:00 UTC. Time now 2018-Feb-25 03:21 UTC.
Position N 40°41' W 074°05'.

Length 24 m.

Type: Tug. MMSI: 366990810.

Date/timePositionNaut miles runAvg speedWind from/ knotsBaromVisibWave heightAir tempDewpointWater temp
2018-Feb-25 03:00N 40°41' W 074°05'0 0.0
2018-Feb-25 02:31N 40°41' W 074°05'0 0.0
2018-Feb-25 02:00N 40°41' W 074°05'0 0.4
2018-Feb-25 01:31N 40°41' W 074°04'1 2.8
2018-Feb-25 01:01N 40°39' W 074°05'3 6.6
2018-Feb-25 00:30N 40°39' W 074°09'3 5.9
2018-Feb-25 00:00N 40°42' W 074°08'0 0.3
2018-Feb-24 23:30N 40°42' W 074°09'0 0.1
2018-Feb-24 22:59N 40°42' W 074°09'2 3.6
2018-Feb-24 22:30N 40°40' W 074°08'2 3.0
2018-Feb-24 22:00N 40°39' W 074°07'1 2.4
2018-Feb-24 21:30N 40°39' W 074°06'0 0.0
2018-Feb-24 21:00N 40°39' W 074°06'2 4.4
2018-Feb-24 20:31N 40°41' W 074°04'1 1.8
2018-Feb-24 20:00N 40°40' W 074°04'2 3.3
2018-Feb-24 19:29N 40°39' W 074°06'0 0.0
2018-Feb-24 19:00N 40°39' W 074°06'0 0.0
2018-Feb-24 18:29N 40°39' W 074°06'1 2.6
2018-Feb-24 18:00N 40°39' W 074°07'4 7.4
2018-Feb-24 17:30N 40°38' W 074°12'4 8.3
2018-Feb-24 16:58N 40°33' W 074°14'1 2.2
2018-Feb-24 16:23N 40°32' W 074°15'1 3.5
2018-Feb-24 16:00N 40°33' W 074°14'3 6.1
2018-Feb-24 15:30N 40°36' W 074°12'3 5.9
2018-Feb-24 15:00N 40°39' W 074°11'4 7.6
2018-Feb-24 14:29N 40°39' W 074°05'3 6.8
2018-Feb-24 14:00N 40°41' W 074°02'510.1
2018-Feb-24 13:30N 40°46' W 074°00'510.0
2018-Feb-24 13:00N 40°50' W 073°57'5 8.9
2018-Feb-24 12:28N 40°55' W 073°55'4 0.7
2018-Feb-24 07:06N 40°58' W 073°54'110.5
2018-Feb-24 06:59N 40°57' W 073°54'510.3
2018-Feb-24 06:30N 40°52' W 073°56'510.4
2018-Feb-24 06:00N 40°48' W 073°59'5 9.5
2018-Feb-24 05:30N 40°43' W 074°01'4 7.4
2018-Feb-24 05:01N 40°40' W 074°04'0 0.5
2018-Feb-24 04:30N 40°41' W 074°05'0 0.0
2018-Feb-24 04:00N 40°41' W 074°05'0 0.0
2018-Feb-24 03:30N 40°41' W 074°05'0 0.0
2018-Feb-24 03:00N 40°41' W 074°05'0 0.0
2018-Feb-24 02:30N 40°41' W 074°05'0 0.0
2018-Feb-24 02:00N 40°41' W 074°05'0 0.0
2018-Feb-24 01:30N 40°41' W 074°05'0 0.0
2018-Feb-24 01:00N 40°41' W 074°05'0 0.0
2018-Feb-24 00:30N 40°41' W 074°05'0 0.0
2018-Feb-24 00:00N 40°41' W 074°05'0 0.0
2018-Feb-23 23:30N 40°41' W 074°05'0 0.0
2018-Feb-23 23:00N 40°41' W 074°05'0 0.1
2018-Feb-23 22:30N 40°41' W 074°04'0 0.1
2018-Feb-23 22:00N 40°41' W 074°04'0 0.2
2018-Feb-23 21:30N 40°41' W 074°05'0 0.0
2018-Feb-23 21:00N 40°41' W 074°05'0 0.0
2018-Feb-23 20:30N 40°41' W 074°05'3 5.9
2018-Feb-23 20:00N 40°41' W 074°01'3 6.5
2018-Feb-23 19:30N 40°44' W 073°58'3 5.7
2018-Feb-23 19:00N 40°46' W 073°57'3 5.6
2018-Feb-23 18:30N 40°48' W 073°54'0 0.1
2018-Feb-23 18:00N 40°48' W 073°54'0 0.2
2018-Feb-23 17:30N 40°48' W 073°54'0 0.0
2018-Feb-23 17:00N 40°48' W 073°54'0 0.0
2018-Feb-23 16:12N 40°48' W 073°54'0 0.0
2018-Feb-23 15:58N 40°48' W 073°54'0 0.0
2018-Feb-23 15:03N 40°48' W 073°54'0 0.0
2018-Feb-23 14:57N 40°48' W 073°54'0 0.0
2018-Feb-23 14:30N 40°48' W 073°54'0 0.0
2018-Feb-23 14:00N 40°48' W 073°54'0 0.2
2018-Feb-23 13:30N 40°48' W 073°54'0 0.0
2018-Feb-23 13:00N 40°48' W 073°54'0 0.0
2018-Feb-23 12:26N 40°48' W 073°54'0 0.0
2018-Feb-23 11:54N 40°48' W 073°54'0 0.2
2018-Feb-23 11:30N 40°48' W 073°54'0 0.0
2018-Feb-23 11:00N 40°48' W 073°54'0 0.0
2018-Feb-23 10:30N 40°48' W 073°54'0 0.0
2018-Feb-23 10:00N 40°48' W 073°54'2 4.2
2018-Feb-23 09:30N 40°47' W 073°56'3 5.9
2018-Feb-23 09:00N 40°44' W 073°58'3 6.9
2018-Feb-23 08:30N 40°42' W 074°00'3 6.5
2018-Feb-23 08:00N 40°41' W 074°05'0 0.0
2018-Feb-23 07:30N 40°41' W 074°05'0 0.0
2018-Feb-23 07:00N 40°41' W 074°05'0 0.0
2018-Feb-23 06:30N 40°41' W 074°05'0 0.0
2018-Feb-23 06:00N 40°41' W 074°05'0 0.0
2018-Feb-23 05:30N 40°41' W 074°05'1 2.6
2018-Feb-23 05:01N 40°40' W 074°03'3 6.7
2018-Feb-23 04:30N 40°43' W 074°01'3 6.5
2018-Feb-23 04:00N 40°41' W 074°05'0 0.0
2018-Feb-23 03:30N 40°41' W 074°05'0 0.0
2018-Feb-23 03:00N 40°41' W 074°05'0 0.0
2018-Feb-23 02:30N 40°41' W 074°05'0 0.0
2018-Feb-23 02:00N 40°41' W 074°05'0 0.0
2018-Feb-23 01:30N 40°41' W 074°05'0 0.0
2018-Feb-23 01:00N 40°41' W 074°05'0 0.0
2018-Feb-23 00:30N 40°41' W 074°05'0 0.0
2018-Feb-23 00:00N 40°41' W 074°05'0 0.0
2018-Feb-22 23:30N 40°41' W 074°05'0 0.0
2018-Feb-22 23:00N 40°41' W 074°05'0 0.0
2018-Feb-22 22:30N 40°41' W 074°05'0 0.0
2018-Feb-22 22:00N 40°41' W 074°05'0 0.0
2018-Feb-22 21:30N 40°41' W 074°05'0 0.0
2018-Feb-22 21:00N 40°41' W 074°05'0 0.0
2018-Feb-22 20:30N 40°41' W 074°05'0 0.0
2018-Feb-22 20:00N 40°41' W 074°05'0 0.0
2018-Feb-22 19:30N 40°41' W 074°05'0 0.0
2018-Feb-22 19:00N 40°41' W 074°05'0 0.0
2018-Feb-22 18:30N 40°41' W 074°05'0 0.0
2018-Feb-22 18:00N 40°41' W 074°05'0 0.0
2018-Feb-22 17:28N 40°41' W 074°05'0 0.0
2018-Feb-22 17:00N 40°41' W 074°05'0 0.0
2018-Feb-22 16:30N 40°41' W 074°05'0 0.0
2018-Feb-22 16:00N 40°41' W 074°05'0 0.0
2018-Feb-22 15:30N 40°41' W 074°05'2 3.2
2018-Feb-22 15:00N 40°39' W 074°05'4 7.8
2018-Feb-22 14:30N 40°39' W 074°10'4 7.3
2018-Feb-22 14:00N 40°35' W 074°12'4 3.2
2018-Feb-22 12:49N 40°32' W 074°15'1 2.0
2018-Feb-22 12:30N 40°33' W 074°15'2 3.6
2018-Feb-22 12:00N 40°34' W 074°13'2 4.4
2018-Feb-22 11:30N 40°36' W 074°12'2 4.2
2018-Feb-22 11:00N 40°38' W 074°12'2 3.9
2018-Feb-22 10:30N 40°39' W 074°10'1 2.0
2018-Feb-22 10:00N 40°39' W 074°08'2 3.1
2018-Feb-22 09:30N 40°39' W 074°06'1 2.4
2018-Feb-22 09:00N 40°39' W 074°05'1 3.0
2018-Feb-22 08:30N 40°40' W 074°04'0 0.6
2018-Feb-22 08:00N 40°41' W 074°04'0 0.2
2018-Feb-22 07:30N 40°41' W 074°04'0 0.0
2018-Feb-22 07:00N 40°41' W 074°04'0 0.0
2018-Feb-22 06:30N 40°41' W 074°04'0 0.0
2018-Feb-22 06:00N 40°41' W 074°04'0 0.0
2018-Feb-22 05:30N 40°41' W 074°04'0 0.0
2018-Feb-22 05:00N 40°41' W 074°04'0 0.1
2018-Feb-22 04:30N 40°41' W 074°04'0 0.2
2018-Feb-22 04:00N 40°40' W 074°04'0 0.3
2018-Feb-22 03:30N 40°41' W 074°05'0 0.3
2018-Feb-22 03:00N 40°40' W 074°04'1 1.1
2018-Feb-22 02:31N 40°40' W 074°04'1 2.0
2018-Feb-22 02:00N 40°41' W 074°02'2 4.1
2018-Feb-22 01:30N 40°42' W 074°00'3 5.1
2018-Feb-22 01:00N 40°44' W 073°58'3 6.8
2018-Feb-22 00:30N 40°47' W 073°56'2 3.6
2018-Feb-22 00:00N 40°47' W 073°54'0 0.2
2018-Feb-21 23:30N 40°47' W 073°54'0 0.0
2018-Feb-21 23:00N 40°47' W 073°54'0 0.0
2018-Feb-21 22:30N 40°47' W 073°54'0 0.0
2018-Feb-21 22:00N 40°47' W 073°54'0 0.0
2018-Feb-21 21:30N 40°47' W 073°54'0 0.0
2018-Feb-21 21:00N 40°47' W 073°54'0 0.0
2018-Feb-21 20:29N 40°47' W 073°54'0 0.0
2018-Feb-21 19:59N 40°47' W 073°54'0 0.0
2018-Feb-21 19:30N 40°47' W 073°54'1 1.6
2018-Feb-21 18:59N 40°48' W 073°55'3 6.1
2018-Feb-21 18:30N 40°45' W 073°57'4 7.8
2018-Feb-21 18:01N 40°42' W 073°60'3 6.8
2018-Feb-21 17:30N 40°40' W 074°04'1 1.2
2018-Feb-21 17:00N 40°41' W 074°05'0 0.0
2018-Feb-21 16:30N 40°41' W 074°05'0 0.1
2018-Feb-21 16:00N 40°41' W 074°05'0 0.2
2018-Feb-21 15:31N 40°40' W 074°04'0 0.2
2018-Feb-21 15:00N 40°41' W 074°05'1 2.0
2018-Feb-21 14:30N 40°40' W 074°04'4 8.1
2018-Feb-21 13:59N 40°39' W 074°10'3 7.1
2018-Feb-21 13:30N 40°36' W 074°12'4 2.4
2018-Feb-21 11:43N 40°32' W 074°15'0 0.0
2018-Feb-20 21:53N 40°32' W 074°15'0 0.0
2018-Feb-20 21:25N 40°32' W 074°15'0 0.0
2018-Feb-20 21:00N 40°32' W 074°15'0 0.0
2018-Feb-20 20:25N 40°32' W 074°15'0 0.0
2018-Feb-20 19:48N 40°32' W 074°15'0 0.0
2018-Feb-20 19:29N 40°32' W 074°15'0 0.0
2018-Feb-20 18:59N 40°32' W 074°15'0 0.0
2018-Feb-20 16:55N 40°32' W 074°15'0 0.0
2018-Feb-20 15:11N 40°32' W 074°15'0 0.0
2018-Feb-20 15:00N 40°32' W 074°15'0 0.0
2018-Feb-19 20:50N 40°32' W 074°15'0 0.0
2018-Feb-19 20:24N 40°32' W 074°15'0 0.0
2018-Feb-19 20:00N 40°32' W 074°15'0 0.0
2018-Feb-19 19:30N 40°32' W 074°15'0 0.0
2018-Feb-19 18:59N 40°32' W 074°15'0 0.0
2018-Feb-19 18:30N 40°32' W 074°15'0 0.0
2018-Feb-19 17:57N 40°32' W 074°15'0 0.0
2018-Feb-19 17:28N 40°32' W 074°15'0 0.0
2018-Feb-19 16:49N 40°32' W 074°15'0 0.0
2018-Feb-19 16:30N 40°32' W 074°15'0 0.0
2018-Feb-19 15:58N 40°32' W 074°15'0 0.0
2018-Feb-19 15:28N 40°32' W 074°15'0 0.0
2018-Feb-19 14:39N 40°32' W 074°15'0 0.0
2018-Feb-19 10:10N 40°32' W 074°15'0 0.0
2018-Feb-19 10:00N 40°32' W 074°15'0 0.0
2018-Feb-19 09:29N 40°32' W 074°15'0 0.0
2018-Feb-19 09:00N 40°32' W 074°15'0 0.0
2018-Feb-19 08:30N 40°32' W 074°15'0 0.0
2018-Feb-19 08:00N 40°32' W 074°15'0 0.0
2018-Feb-19 07:30N 40°32' W 074°15'0 0.0
2018-Feb-19 06:58N 40°32' W 074°15'0 0.0
2018-Feb-19 06:30N 40°32' W 074°15'0 0.0
2018-Feb-19 06:00N 40°32' W 074°15'0 0.0
2018-Feb-19 05:30N 40°32' W 074°15'0 0.0
2018-Feb-19 05:00N 40°32' W 074°15'0 0.0
2018-Feb-19 04:29N 40°32' W 074°15'0 0.0
2018-Feb-19 04:00N 40°32' W 074°15'0 0.0
2018-Feb-19 03:30N 40°32' W 074°15'0 0.0
2018-Feb-19 02:56N 40°32' W 074°15'0 0.0
2018-Feb-19 01:50N 40°32' W 074°15'0 0.0
2018-Feb-19 01:23N 40°32' W 074°15'0 0.2
2018-Feb-18 23:20N 40°33' W 074°15'3 7.8
2018-Feb-18 22:59N 40°35' W 074°13'4 9.0
2018-Feb-18 22:30N 40°39' W 074°11'5 9.8
2018-Feb-18 22:00N 40°39' W 074°05'1 2.8
2018-Feb-18 21:30N 40°41' W 074°04'0 0.0
2018-Feb-18 21:00N 40°41' W 074°04'0 0.0
2018-Feb-18 20:30N 40°41' W 074°04'0 0.0
2018-Feb-18 20:00N 40°41' W 074°04'0 0.0
2018-Feb-18 19:30N 40°41' W 074°04'0 0.2
2018-Feb-18 19:00N 40°41' W 074°05'2 4.4
2018-Feb-18 18:29N 40°39' W 074°07'0 0.2
2018-Feb-18 17:59N 40°39' W 074°07'0 0.0
2018-Feb-18 17:30N 40°39' W 074°07'0 0.0
2018-Feb-18 17:00N 40°39' W 074°07'0 0.0
2018-Feb-18 16:30N 40°39' W 074°07'0 0.0
2018-Feb-18 16:00N 40°39' W 074°07'0 0.0
2018-Feb-18 15:30N 40°39' W 074°07'0 0.0
2018-Feb-18 15:00N 40°39' W 074°07'4 7.5
2018-Feb-18 14:30N 40°38' W 074°12'5 9.2
2018-Feb-18 14:00N 40°34' W 074°13'2 4.7
2018-Feb-18 13:30N 40°32' W 074°15'0 0.0
2018-Feb-18 12:59N 40°32' W 074°15'0 0.0
2018-Feb-18 12:30N 40°32' W 074°15'0 0.0
2018-Feb-18 11:37N 40°32' W 074°15'0 0.0
2018-Feb-18 11:18N 40°32' W 074°15'0 0.0
2018-Feb-18 11:00N 40°32' W 074°15'0 0.0
2018-Feb-18 10:30N 40°32' W 074°15'0 0.0
2018-Feb-18 10:00N 40°32' W 074°15'0 0.0
2018-Feb-18 09:30N 40°32' W 074°15'0 0.0
2018-Feb-18 09:00N 40°32' W 074°15'0 0.0
2018-Feb-18 08:29N 40°32' W 074°15'0 0.0
2018-Feb-18 08:00N 40°32' W 074°15'0 0.0
2018-Feb-18 07:29N 40°32' W 074°15'0 0.0
2018-Feb-18 07:00N 40°32' W 074°15'0 0.0
2018-Feb-18 06:30N 40°32' W 074°15'0 0.0
2018-Feb-18 05:59N 40°32' W 074°15'0 0.0
2018-Feb-18 05:30N 40°32' W 074°15'0 0.0
2018-Feb-18 04:59N 40°32' W 074°15'0 0.0
2018-Feb-18 04:30N 40°32' W 074°15'0 0.0
2018-Feb-18 04:00N 40°32' W 074°15'0 0.0
2018-Feb-18 03:30N 40°32' W 074°15'0 0.0
2018-Feb-18 02:59N 40°32' W 074°15'0 0.0
2018-Feb-17 23:52N 40°32' W 074°15'0 0.1
2018-Feb-17 23:09N 40°32' W 074°15'0 0.0
2018-Feb-17 22:59N 40°32' W 074°15'0 0.0
2018-Feb-17 21:56N 40°32' W 074°15'0 0.2
2018-Feb-17 21:23N 40°32' W 074°15'0 0.0
2018-Feb-17 20:55N 40°32' W 074°15'0 0.0
2018-Feb-17 20:27N 40°32' W 074°15'0 0.0
2018-Feb-17 19:56N 40°32' W 074°15'0 0.1
2018-Feb-17 19:24N 40°32' W 074°15'0 0.1
2018-Feb-17 19:00N 40°32' W 074°15'0 0.0
2018-Feb-17 17:01N 40°32' W 074°15'0 0.4
2018-Feb-17 17:00N 40°32' W 074°15'0 0.0
2018-Feb-17 15:06N 40°32' W 074°15'0 0.2
2018-Feb-17 14:57N 40°32' W 074°15'0 0.0
2018-Feb-17 13:27N 40°32' W 074°15'0 0.0
2018-Feb-17 08:17N 40°32' W 074°15'0 0.0
2018-Feb-17 07:58N 40°32' W 074°15'0 0.0
2018-Feb-17 07:29N 40°32' W 074°15'0 0.0
2018-Feb-17 05:37N 40°32' W 074°15'0 0.0
2018-Feb-17 03:42N 40°32' W 074°15'0 0.0
2018-Feb-17 03:30N 40°32' W 074°15'0 0.0
2018-Feb-17 03:00N 40°32' W 074°15'0 0.0
2018-Feb-17 02:30N 40°32' W 074°15'0 0.0
2018-Feb-17 01:58N 40°32' W 074°15'0 0.0
2018-Feb-17 01:13N 40°32' W 074°15'0 0.0
2018-Feb-17 00:54N 40°32' W 074°15'0 0.0
2018-Feb-16 18:19N 40°32' W 074°15'0 0.1
2018-Feb-16 17:59N 40°32' W 074°15'0 0.0
2018-Feb-16 17:27N 40°32' W 074°15'0 0.1
2018-Feb-16 16:51N 40°32' W 074°15'0 0.0
2018-Feb-16 15:55N 40°32' W 074°15'0 0.0
2018-Feb-16 15:28N 40°32' W 074°15'0 0.0
2018-Feb-16 14:32N 40°32' W 074°15'0 0.0
2018-Feb-16 14:29N 40°32' W 074°15'0 0.0
2018-Feb-16 12:10N 40°32' W 074°15'0 0.0
2018-Feb-16 11:04N 40°32' W 074°15'0 0.0
2018-Feb-16 10:26N 40°32' W 074°15'0 0.0
2018-Feb-16 03:56N 40°32' W 074°15'4 8.2
2018-Feb-16 03:28N 40°36' W 074°12'4 7.8
2018-Feb-16 03:00N 40°39' W 074°10'4 8.0
2018-Feb-16 02:30N 40°39' W 074°05'1 2.9
2018-Feb-16 02:00N 40°41' W 074°05'0 0.0
2018-Feb-16 01:30N 40°41' W 074°05'0 0.2
2018-Feb-16 01:00N 40°41' W 074°04'0 0.5
2018-Feb-16 00:30N 40°40' W 074°04'3 6.8
2018-Feb-16 00:00N 40°42' W 074°00'3 5.9
2018-Feb-15 23:30N 40°44' W 073°58'1 2.9
2018-Feb-15 23:00N 40°46' W 073°57'0 0.0
2018-Feb-15 22:30N 40°46' W 073°57'0 0.0
2018-Feb-15 22:00N 40°46' W 073°57'0 0.0
2018-Feb-15 21:30N 40°46' W 073°57'0 0.0
2018-Feb-15 21:00N 40°46' W 073°57'0 0.0
2018-Feb-15 20:30N 40°46' W 073°57'0 0.0
2018-Feb-15 19:58N 40°46' W 073°57'0 0.0
2018-Feb-15 19:30N 40°46' W 073°57'0 0.0
2018-Feb-15 19:00N 40°46' W 073°57'0 0.0
2018-Feb-15 18:29N 40°46' W 073°57'0 0.0
2018-Feb-15 18:00N 40°46' W 073°57'0 0.0
2018-Feb-15 17:30N 40°46' W 073°57'0 0.0
2018-Feb-15 17:00N 40°46' W 073°57'0 0.0
2018-Feb-15 16:30N 40°46' W 073°57'0 0.0
2018-Feb-15 16:00N 40°46' W 073°57'0 0.0
2018-Feb-15 15:30N 40°46' W 073°57'0 0.0
2018-Feb-15 15:00N 40°46' W 073°57'0 0.0
2018-Feb-15 14:30N 40°46' W 073°57'0 0.0
2018-Feb-15 14:00N 40°46' W 073°57'0 0.0
2018-Feb-15 13:30N 40°46' W 073°57'0 0.1
2018-Feb-15 13:00N 40°46' W 073°57'0 0.0
2018-Feb-15 12:30N 40°46' W 073°57'2 3.9
2018-Feb-15 12:00N 40°44' W 073°58'4 8.8
2018-Feb-15 11:30N 40°41' W 074°02'2 3.5
2018-Feb-15 11:00N 40°41' W 074°04'0 0.4
2018-Feb-15 10:30N 40°41' W 074°05'0 0.0
2018-Feb-15 10:00N 40°41' W 074°05'0 0.0
2018-Feb-15 09:30N 40°41' W 074°05'0 0.0
2018-Feb-15 09:00N 40°41' W 074°05'0 0.0
2018-Feb-15 08:30N 40°41' W 074°05'0 0.0
2018-Feb-15 08:00N 40°41' W 074°05'0 0.0
2018-Feb-15 07:30N 40°41' W 074°05'0 0.0
2018-Feb-15 07:00N 40°41' W 074°05'0 0.0
2018-Feb-15 06:30N 40°41' W 074°05'2 3.5
2018-Feb-15 06:00N 40°39' W 074°06'2 4.9
2018-Feb-15 05:30N 40°38' W 074°09'2 4.4
2018-Feb-15 05:00N 40°38' W 074°12'4 7.2
2018-Feb-15 04:30N 40°35' W 074°13'  

Dump ship's entire track history